PWSweather.com
Personal Weather Stations
Station Observations
NBW76
Silver Creek, North Bend, WA 98065

Silver CreekNorth Bend, WA 98065

Lat: 47.4993612, Lon: -121.7783245

Elevation: 443

Station Type: Davisd VP2 + Solar + UV + Webcam

www.northbendweather.com

High Low Average
Temperature 63.7°F17.6°C 50.6°F10.3°C 55.6°F13.1°C
Dew Point 53.8°F12.1°C 46.6°F8.1°C 49.9°F9.9°C
Winds 6.9 mph 11.1 kmh Calm Calm 2.0 mph S3.2 kmh S
Wind Gusts 12.7 mph20.4 kmh -- 3.0 mph4.8 kmh
Humidity 95% 57% 82%
Pressure 30.00 in1015.9 mb 29.83 in1010.2 mb -
Precipitation 0.52 in13.2 mm - -
Hour Temp Dew Point Humidity Winds Wind Gusts Pressure Precip Precip Rate Daily Precip Total
12:00 AM 55.2°F12.9°C 52.0°F11.1°C 89% Calm Calm -- 29.86 in1011.2 mb - 0.00 in0.0 mm 0.00 in0.0 mm
12:10 AM 54.8°F12.7°C 51.6°F10.9°C 89% Calm Calm -- 29.86 in1011.2 mb - 0.00 in0.0 mm 0.00 in0.0 mm
12:20 AM 54.4°F12.4°C 51.3°F10.7°C 89% Calm Calm -- 29.86 in1011.2 mb - 0.00 in0.0 mm 0.00 in0.0 mm
12:30 AM 53.9°F12.2°C 51.0°F10.6°C 90% Calm Calm -- 29.86 in1011.2 mb - 0.00 in0.0 mm 0.00 in0.0 mm
12:40 AM 53.3°F11.8°C 50.4°F10.2°C 90% Calm Calm -- 29.86 in1011.2 mb - 0.00 in0.0 mm 0.00 in0.0 mm
12:50 AM 52.8°F11.6°C 50.2°F10.1°C 91% Calm Calm -- 29.86 in1011.2 mb - 0.00 in0.0 mm 0.00 in0.0 mm
01:00 AM 52.3°F11.3°C 49.8°F9.9°C 91% Calm Calm -- 29.86 in1011.2 mb - 0.00 in0.0 mm 0.00 in0.0 mm
01:10 AM 51.8°F11.0°C 49.3°F9.6°C 91% Calm Calm -- 29.86 in1011.2 mb - 0.00 in0.0 mm 0.00 in0.0 mm
01:20 AM 51.5°F10.8°C 49.3°F9.6°C 92% Calm Calm -- 29.86 in1011.2 mb - 0.00 in0.0 mm 0.00 in0.0 mm
01:30 AM 51.4°F10.8°C 49.2°F9.6°C 92% Calm Calm -- 29.86 in1011.2 mb - 0.00 in0.0 mm 0.00 in0.0 mm
01:40 AM 51.5°F10.8°C 49.3°F9.6°C 92% Calm Calm -- 29.85 in1010.8 mb - 0.00 in0.0 mm 0.00 in0.0 mm
01:50 AM 51.5°F10.8°C 49.5°F9.7°C 93% Calm Calm -- 29.85 in1010.8 mb - 0.00 in0.0 mm 0.00 in0.0 mm
02:00 AM 51.4°F10.8°C 49.4°F9.7°C 93% Calm Calm -- 29.85 in1010.8 mb - 0.00 in0.0 mm 0.00 in0.0 mm
02:10 AM 51.3°F10.7°C 49.3°F9.6°C 93% Calm Calm -- 29.85 in1010.8 mb - 0.00 in0.0 mm 0.00 in0.0 mm
02:20 AM 51.3°F10.7°C 49.3°F9.6°C 93% Calm Calm -- 29.84 in1010.5 mb - 0.00 in0.0 mm 0.00 in0.0 mm
02:30 AM 51.3°F10.7°C 49.3°F9.6°C 93% Calm Calm -- 29.85 in1010.8 mb - 0.00 in0.0 mm 0.00 in0.0 mm
02:40 AM 51.4°F10.8°C 49.4°F9.7°C 93% Calm Calm -- 29.85 in1010.8 mb - 0.00 in0.0 mm 0.00 in0.0 mm
02:50 AM 51.5°F10.8°C 49.5°F9.7°C 93% Calm Calm -- 29.84 in1010.5 mb - 0.00 in0.0 mm 0.00 in0.0 mm
03:00 AM 51.7°F10.9°C 49.7°F9.8°C 93% Calm Calm 2.3 mph3.7 kmh 29.84 in1010.5 mb - 0.00 in0.0 mm 0.00 in0.0 mm
03:10 AM 51.5°F10.8°C 49.5°F9.7°C 93% Calm Calm -- 29.84 in1010.5 mb - 0.00 in0.0 mm 0.00 in0.0 mm
03:20 AM 51.5°F10.8°C 49.5°F9.7°C 93% Calm Calm -- 29.85 in1010.8 mb - 0.00 in0.0 mm 0.00 in0.0 mm
03:30 AM 51.5°F10.8°C 49.5°F9.7°C 93% Calm Calm -- 29.84 in1010.5 mb - 0.00 in0.0 mm 0.00 in0.0 mm
03:40 AM 51.5°F10.8°C 49.5°F9.7°C 93% Calm Calm -- 29.84 in1010.5 mb - 0.00 in0.0 mm 0.00 in0.0 mm
03:50 AM 51.5°F10.8°C 49.5°F9.7°C 93% Calm Calm -- 29.83 in1010.2 mb - 0.00 in0.0 mm 0.00 in0.0 mm
04:00 AM 51.4°F10.8°C 49.4°F9.7°C 93% Calm Calm -- 29.83 in1010.2 mb - 0.00 in0.0 mm 0.00 in0.0 mm
04:10 AM 51.2°F10.7°C 49.2°F9.6°C 93% Calm Calm -- 29.84 in1010.5 mb - 0.00 in0.0 mm 0.00 in0.0 mm
04:20 AM 50.9°F10.5°C 49.0°F9.4°C 93% Calm Calm -- 29.84 in1010.5 mb - 0.00 in0.0 mm 0.00 in0.0 mm
04:30 AM 50.8°F10.4°C 49.1°F9.5°C 94% Calm Calm -- 29.84 in1010.5 mb - 0.00 in0.0 mm 0.00 in0.0 mm
04:40 AM 51.0°F10.6°C 49.0°F9.4°C 93% Calm Calm -- 29.84 in1010.5 mb - 0.00 in0.0 mm 0.00 in0.0 mm
04:50 AM 51.0°F10.6°C 49.0°F9.4°C 93% Calm Calm -- 29.84 in1010.5 mb - 0.00 in0.0 mm 0.00 in0.0 mm
05:00 AM 50.8°F10.4°C 48.8°F9.3°C 93% Calm Calm -- 29.84 in1010.5 mb - 0.00 in0.0 mm 0.00 in0.0 mm
05:10 AM 50.9°F10.5°C 49.2°F9.6°C 94% 1.2 mph S1.9 kmh S 3.5 mph5.6 kmh 29.85 in1010.8 mb - 0.00 in0.0 mm 0.00 in0.0 mm
05:20 AM 50.9°F10.5°C 48.9°F9.4°C 93% Calm Calm -- 29.84 in1010.5 mb - 0.00 in0.0 mm 0.00 in0.0 mm
05:30 AM 51.2°F10.7°C 49.5°F9.7°C 94% Calm Calm 1.2 mph1.9 kmh 29.84 in1010.5 mb - 0.00 in0.0 mm 0.00 in0.0 mm
05:40 AM 51.2°F10.7°C 49.3°F9.6°C 93% Calm Calm -- 29.84 in1010.5 mb - 0.00 in0.0 mm 0.00 in0.0 mm
05:50 AM 51.3°F10.7°C 49.3°F9.6°C 93% Calm Calm -- 29.84 in1010.5 mb - 0.00 in0.0 mm 0.00 in0.0 mm
06:00 AM 51.4°F10.8°C 49.4°F9.7°C 93% Calm Calm -- 29.84 in1010.5 mb - 0.00 in0.0 mm 0.00 in0.0 mm
06:10 AM 51.5°F10.8°C 49.8°F9.9°C 94% Calm Calm -- 29.84 in1010.5 mb - 0.00 in0.0 mm 0.00 in0.0 mm
06:20 AM 51.8°F11.0°C 50.1°F10.1°C 94% Calm Calm -- 29.84 in1010.5 mb - 0.00 in0.0 mm 0.00 in0.0 mm
06:30 AM 52.0°F11.1°C 50.0°F10.0°C 93% Calm Calm -- 29.85 in1010.8 mb - 0.00 in0.0 mm 0.00 in0.0 mm
06:40 AM 52.1°F11.2°C 50.1°F10.1°C 93% Calm Calm -- 29.84 in1010.5 mb - 0.00 in0.0 mm 0.00 in0.0 mm
06:50 AM 52.3°F11.3°C 50.3°F10.2°C 93% Calm Calm -- 29.84 in1010.5 mb - 0.00 in0.0 mm 0.00 in0.0 mm
07:00 AM 52.6°F11.4°C 50.6°F10.3°C 93% Calm Calm -- 29.84 in1010.5 mb - 0.00 in0.0 mm 0.00 in0.0 mm
07:10 AM 52.7°F11.5°C 50.4°F10.2°C 92% Calm Calm -- 29.84 in1010.5 mb - 0.00 in0.0 mm 0.00 in0.0 mm
07:20 AM 53.1°F11.7°C 50.9°F10.5°C 92% Calm Calm -- 29.84 in1010.5 mb - 0.00 in0.0 mm 0.00 in0.0 mm
07:30 AM 53.3°F11.8°C 50.4°F10.2°C 90% Calm Calm 1.2 mph1.9 kmh 29.83 in1010.2 mb - 0.00 in0.0 mm 0.00 in0.0 mm
07:40 AM 54.6°F12.6°C 50.8°F10.4°C 87% Calm Calm -- 29.84 in1010.5 mb - 0.00 in0.0 mm 0.00 in0.0 mm
07:50 AM 55.1°F12.8°C 50.3°F10.2°C 84% 1.2 mph SE1.9 kmh SE 2.3 mph3.7 kmh 29.84 in1010.5 mb - 0.00 in0.0 mm 0.00 in0.0 mm
08:00 AM 55.2°F12.9°C 50.8°F10.4°C 85% 2.3 mph WSW3.7 kmh WSW 3.5 mph5.6 kmh 29.84 in1010.5 mb - 0.00 in0.0 mm 0.00 in0.0 mm
08:10 AM 55.5°F13.1°C 50.7°F10.4°C 84% 2.3 mph NW3.7 kmh NW 4.6 mph7.4 kmh 29.85 in1010.8 mb - 0.00 in0.0 mm 0.00 in0.0 mm
08:20 AM 55.1°F12.8°C 50.7°F10.4°C 85% 1.2 mph NW1.9 kmh NW 3.5 mph5.6 kmh 29.85 in1010.8 mb - 0.00 in0.0 mm 0.00 in0.0 mm
08:30 AM 55.1°F12.8°C 49.7°F9.8°C 82% 3.5 mph N5.6 kmh N 4.6 mph7.4 kmh 29.85 in1010.8 mb - 0.00 in0.0 mm 0.00 in0.0 mm
08:40 AM 55.8°F13.2°C 50.7°F10.4°C 83% Calm Calm -- 29.85 in1010.8 mb - 0.00 in0.0 mm 0.00 in0.0 mm
08:50 AM 56.0°F13.3°C 49.6°F9.8°C 79% Calm Calm -- 29.85 in1010.8 mb - 0.00 in0.0 mm 0.00 in0.0 mm
09:00 AM 56.6°F13.7°C 49.5°F9.7°C 77% Calm Calm -- 29.86 in1011.2 mb - 0.00 in0.0 mm 0.00 in0.0 mm
09:10 AM 57.0°F13.9°C 49.9°F9.9°C 77% Calm Calm 1.2 mph1.9 kmh 29.86 in1011.2 mb - 0.00 in0.0 mm 0.00 in0.0 mm
09:20 AM 57.5°F14.2°C 50.0°F10.0°C 76% Calm Calm -- 29.86 in1011.2 mb - 0.00 in0.0 mm 0.00 in0.0 mm
09:30 AM 57.7°F14.3°C 50.9°F10.5°C 78% Calm Calm -- 29.87 in1011.5 mb - 0.00 in0.0 mm 0.00 in0.0 mm
09:40 AM 57.7°F14.3°C 50.2°F10.1°C 76% 2.3 mph NE3.7 kmh NE 3.5 mph5.6 kmh 29.86 in1011.2 mb - 0.00 in0.0 mm 0.00 in0.0 mm
09:50 AM 58.6°F14.8°C 50.3°F10.2°C 74% 1.2 mph ESE1.9 kmh ESE 3.5 mph5.6 kmh 29.87 in1011.5 mb - 0.00 in0.0 mm 0.00 in0.0 mm
10:00 AM 59.2°F15.1°C 50.2°F10.1°C 72% 1.2 mph ESE1.9 kmh ESE 3.5 mph5.6 kmh 29.87 in1011.5 mb - 0.00 in0.0 mm 0.00 in0.0 mm
10:10 AM 59.6°F15.3°C 49.8°F9.9°C 70% 1.2 mph E1.9 kmh E -- 29.87 in1011.5 mb - 0.00 in0.0 mm 0.00 in0.0 mm
10:20 AM 60.0°F15.6°C 49.8°F9.9°C 69% 5.8 mph E9.3 kmh E 5.8 mph9.3 kmh 29.87 in1011.5 mb - 0.00 in0.0 mm 0.00 in0.0 mm
10:30 AM 60.4°F15.8°C 50.6°F10.3°C 70% 1.2 mph E1.9 kmh E 4.6 mph7.4 kmh 29.87 in1011.5 mb - 0.00 in0.0 mm 0.00 in0.0 mm
10:40 AM 60.5°F15.8°C 50.3°F10.2°C 69% 2.3 mph NE3.7 kmh NE 9.2 mph14.8 kmh 29.87 in1011.5 mb - 0.00 in0.0 mm 0.00 in0.0 mm
10:50 AM 59.9°F15.5°C 50.1°F10.1°C 70% 2.3 mph ESE3.7 kmh ESE 3.5 mph5.6 kmh 29.87 in1011.5 mb - 0.00 in0.0 mm 0.00 in0.0 mm
11:00 AM 60.1°F15.6°C 50.3°F10.2°C 70% 3.5 mph SE5.6 kmh SE 3.5 mph5.6 kmh 29.88 in1011.9 mb - 0.00 in0.0 mm 0.00 in0.0 mm
11:10 AM 59.7°F15.4°C 50.3°F10.2°C 71% 2.3 mph SE3.7 kmh SE 3.5 mph5.6 kmh 29.88 in1011.9 mb - 0.00 in0.0 mm 0.00 in0.0 mm
11:20 AM 59.4°F15.2°C 51.8°F11.0°C 76% Calm Calm 3.5 mph5.6 kmh 29.88 in1011.9 mb - 0.00 in0.0 mm 0.00 in0.0 mm
11:30 AM 58.7°F14.8°C 51.5°F10.8°C 77% 2.3 mph ESE3.7 kmh ESE 9.2 mph14.8 kmh 29.88 in1011.9 mb - 0.00 in0.0 mm 0.00 in0.0 mm
11:40 AM 59.1°F15.1°C 52.2°F11.2°C 78% 2.3 mph ESE3.7 kmh ESE 5.8 mph9.3 kmh 29.88 in1011.9 mb - 0.00 in0.0 mm 0.00 in0.0 mm
11:50 AM 59.6°F15.3°C 49.8°F9.9°C 70% Calm Calm 2.3 mph3.7 kmh 29.88 in1011.9 mb - 0.00 in0.0 mm 0.00 in0.0 mm
12:00 PM 60.0°F15.6°C 49.4°F9.7°C 68% 1.2 mph ENE1.9 kmh ENE 1.2 mph1.9 kmh 29.88 in1011.9 mb - 0.00 in0.0 mm 0.00 in0.0 mm
12:10 PM 60.0°F15.6°C 49.0°F9.4°C 67% 5.8 mph E9.3 kmh E 11.5 mph18.5 kmh 29.89 in1012.2 mb - 0.00 in0.0 mm 0.00 in0.0 mm
12:20 PM 59.7°F15.4°C 48.8°F9.3°C 67% 1.2 mph E1.9 kmh E 10.4 mph16.7 kmh 29.89 in1012.2 mb - 0.00 in0.0 mm 0.00 in0.0 mm
12:30 PM 59.9°F15.5°C 48.9°F9.4°C 67% 3.5 mph E5.6 kmh E 3.5 mph5.6 kmh 29.89 in1012.2 mb - 0.00 in0.0 mm 0.00 in0.0 mm
12:40 PM 60.4°F15.8°C 48.6°F9.2°C 65% 6.9 mph E11.1 kmh E 10.4 mph16.7 kmh 29.89 in1012.2 mb - 0.00 in0.0 mm 0.00 in0.0 mm
12:50 PM 59.7°F15.4°C 49.5°F9.7°C 69% 4.6 mph E7.4 kmh E 10.4 mph16.7 kmh 29.89 in1012.2 mb - 0.00 in0.0 mm 0.00 in0.0 mm
01:00 PM 57.0°F13.9°C 50.5°F10.3°C 79% 4.6 mph ESE7.4 kmh ESE 6.9 mph11.1 kmh 29.91 in1012.9 mb - 0.00 in0.0 mm 0.00 in0.0 mm
01:10 PM 57.9°F14.4°C 52.4°F11.3°C 82% 2.3 mph SE3.7 kmh SE 5.8 mph9.3 kmh 29.91 in1012.9 mb - 0.00 in0.0 mm 0.00 in0.0 mm
01:20 PM 60.0°F15.6°C 51.3°F10.7°C 73% 4.6 mph E7.4 kmh E 11.5 mph18.5 kmh 29.91 in1012.9 mb - 0.00 in0.0 mm 0.00 in0.0 mm
01:30 PM 60.3°F15.7°C 53.8°F12.1°C 79% Calm Calm -- 29.90 in1012.5 mb - 0.00 in0.0 mm 0.00 in0.0 mm
01:40 PM 61.4°F16.3°C 51.9°F11.1°C 71% 3.5 mph N5.6 kmh N 4.6 mph7.4 kmh 29.90 in1012.5 mb - 0.00 in0.0 mm 0.00 in0.0 mm
01:50 PM 62.9°F17.2°C 51.4°F10.8°C 66% Calm Calm 3.5 mph5.6 kmh 29.90 in1012.5 mb - 0.00 in0.0 mm 0.00 in0.0 mm
02:00 PM 61.1°F16.2°C 50.4°F10.2°C 68% 3.5 mph SE5.6 kmh SE 4.6 mph7.4 kmh 29.90 in1012.5 mb - 0.00 in0.0 mm 0.00 in0.0 mm
02:10 PM 62.0°F16.7°C 51.4°F10.8°C 68% 1.2 mph E1.9 kmh E 3.5 mph5.6 kmh 29.90 in1012.5 mb - 0.00 in0.0 mm 0.00 in0.0 mm
02:20 PM 63.6°F17.6°C 50.8°F10.4°C 63% 3.5 mph NNW5.6 kmh NNW 3.5 mph5.6 kmh 29.90 in1012.5 mb - 0.00 in0.0 mm 0.00 in0.0 mm
02:30 PM 62.3°F16.8°C 50.8°F10.4°C 66% 1.2 mph S1.9 kmh S 3.5 mph5.6 kmh 29.90 in1012.5 mb - 0.00 in0.0 mm 0.00 in0.0 mm
02:40 PM 62.6°F17.0°C 48.1°F8.9°C 59% 3.5 mph ESE5.6 kmh ESE 12.7 mph20.4 kmh 29.90 in1012.5 mb - 0.00 in0.0 mm 0.00 in0.0 mm
02:50 PM 63.7°F17.6°C 49.1°F9.5°C 59% 4.6 mph E7.4 kmh E 8.1 mph13.0 kmh 29.90 in1012.5 mb - 0.00 in0.0 mm 0.00 in0.0 mm
03:00 PM 62.1°F16.7°C 47.6°F8.7°C 59% 3.5 mph N5.6 kmh N 4.6 mph7.4 kmh 29.90 in1012.5 mb - 0.00 in0.0 mm 0.00 in0.0 mm
03:10 PM 61.9°F16.6°C 48.3°F9.1°C 61% 2.3 mph SE3.7 kmh SE 4.6 mph7.4 kmh 29.90 in1012.5 mb - 0.00 in0.0 mm 0.00 in0.0 mm
03:20 PM 60.9°F16.1°C 49.5°F9.7°C 66% 2.3 mph SW3.7 kmh SW 5.8 mph9.3 kmh 29.90 in1012.5 mb - 0.00 in0.0 mm 0.00 in0.0 mm
03:30 PM 61.0°F16.1°C 49.6°F9.8°C 66% Calm Calm 1.2 mph1.9 kmh 29.91 in1012.9 mb - 0.00 in0.0 mm 0.00 in0.0 mm
03:40 PM 60.7°F15.9°C 48.9°F9.4°C 65% 3.5 mph E5.6 kmh E 3.5 mph5.6 kmh 29.90 in1012.5 mb - 0.00 in0.0 mm 0.00 in0.0 mm
03:50 PM 60.8°F16.0°C 48.5°F9.2°C 64% 2.3 mph NNW3.7 kmh NNW 3.5 mph5.6 kmh 29.90 in1012.5 mb - 0.00 in0.0 mm 0.00 in0.0 mm
04:00 PM 61.0°F16.1°C 48.7°F9.3°C 64% 1.2 mph WSW1.9 kmh WSW 3.5 mph5.6 kmh 29.90 in1012.5 mb - 0.00 in0.0 mm 0.00 in0.0 mm
04:10 PM 62.4°F16.9°C 50.0°F10.0°C 64% Calm Calm 1.2 mph1.9 kmh 29.90 in1012.5 mb - 0.00 in0.0 mm 0.00 in0.0 mm
04:20 PM 62.7°F17.1°C 48.6°F9.2°C 60% 2.3 mph ESE3.7 kmh ESE 3.5 mph5.6 kmh 29.90 in1012.5 mb - 0.00 in0.0 mm 0.00 in0.0 mm
04:30 PM 62.3°F16.8°C 48.7°F9.3°C 61% 6.9 mph WSW11.1 kmh WSW 9.2 mph14.8 kmh 29.90 in1012.5 mb - 0.00 in0.0 mm 0.00 in0.0 mm
04:40 PM 62.2°F16.8°C 47.7°F8.7°C 59% 1.2 mph S1.9 kmh S 3.5 mph5.6 kmh 29.90 in1012.5 mb - 0.00 in0.0 mm 0.00 in0.0 mm
04:50 PM 62.5°F16.9°C 47.1°F8.4°C 57% 2.3 mph N3.7 kmh N 3.5 mph5.6 kmh 29.90 in1012.5 mb - 0.00 in0.0 mm 0.00 in0.0 mm
05:00 PM 62.3°F16.8°C 47.3°F8.5°C 58% 4.6 mph W7.4 kmh W 6.9 mph11.1 kmh 29.91 in1012.9 mb - 0.00 in0.0 mm 0.00 in0.0 mm
05:10 PM 61.6°F16.4°C 46.6°F8.1°C 58% 3.5 mph NW5.6 kmh NW 3.5 mph5.6 kmh 29.91 in1012.9 mb - 0.00 in0.0 mm 0.00 in0.0 mm
05:20 PM 61.3°F16.3°C 46.8°F8.2°C 59% 6.9 mph SE11.1 kmh SE 11.5 mph18.5 kmh 29.91 in1012.9 mb - 0.00 in0.0 mm 0.00 in0.0 mm
05:30 PM 61.3°F16.3°C 48.6°F9.2°C 63% 4.6 mph SSW7.4 kmh SSW 8.1 mph13.0 kmh 29.91 in1012.9 mb - 0.00 in0.0 mm 0.00 in0.0 mm
05:40 PM 61.1°F16.2°C 49.6°F9.8°C 66% Calm Calm 2.3 mph3.7 kmh 29.91 in1012.9 mb - 0.00 in0.0 mm 0.00 in0.0 mm
05:50 PM 60.7°F15.9°C 50.1°F10.1°C 68% 4.6 mph WSW7.4 kmh WSW 5.8 mph9.3 kmh 29.92 in1013.2 mb - 0.00 in0.0 mm 0.00 in0.0 mm
06:00 PM 60.6°F15.9°C 50.3°F10.2°C 69% 2.3 mph NW3.7 kmh NW 3.5 mph5.6 kmh 29.91 in1012.9 mb - 0.00 in0.0 mm 0.00 in0.0 mm
06:10 PM 59.9°F15.5°C 50.5°F10.3°C 71% 3.5 mph WSW5.6 kmh WSW 4.6 mph7.4 kmh 29.91 in1012.9 mb - 0.00 in0.0 mm 0.00 in0.0 mm
06:20 PM 59.6°F15.3°C 51.0°F10.6°C 73% 2.3 mph W3.7 kmh W 4.6 mph7.4 kmh 29.91 in1012.9 mb - 0.00 in0.0 mm 0.00 in0.0 mm
06:30 PM 58.3°F14.6°C 51.1°F10.6°C 77% 3.5 mph SW5.6 kmh SW 4.6 mph7.4 kmh 29.92 in1013.2 mb - 0.00 in0.0 mm 0.00 in0.0 mm
06:40 PM 57.5°F14.2°C 51.0°F10.6°C 79% 2.3 mph WSW3.7 kmh WSW 4.6 mph7.4 kmh 29.92 in1013.2 mb - 0.00 in0.0 mm 0.00 in0.0 mm
06:50 PM 56.9°F13.8°C 51.1°F10.6°C 81% 4.6 mph SW7.4 kmh SW 9.2 mph14.8 kmh 29.92 in1013.2 mb - 0.00 in0.0 mm 0.00 in0.0 mm
07:00 PM 56.7°F13.7°C 51.3°F10.7°C 82% 4.6 mph WSW7.4 kmh WSW 10.4 mph16.7 kmh 29.93 in1013.5 mb - 0.00 in0.0 mm 0.00 in0.0 mm
07:10 PM 56.0°F13.3°C 51.2°F10.7°C 84% 2.3 mph W3.7 kmh W 3.5 mph5.6 kmh 29.93 in1013.5 mb - 0.00 in0.0 mm 0.00 in0.0 mm
07:20 PM 55.6°F13.1°C 51.1°F10.6°C 85% 3.5 mph SW5.6 kmh SW 5.8 mph9.3 kmh 29.93 in1013.5 mb - 0.00 in0.0 mm 0.00 in0.0 mm
07:30 PM 54.9°F12.7°C 51.1°F10.6°C 87% 3.5 mph WSW5.6 kmh WSW 4.6 mph7.4 kmh 29.93 in1013.5 mb - 0.00 in0.0 mm 0.00 in0.0 mm
07:40 PM 54.3°F12.4°C 51.2°F10.7°C 89% 3.5 mph SW5.6 kmh SW 4.6 mph7.4 kmh 29.94 in1013.9 mb - 0.00 in0.0 mm 0.00 in0.0 mm
07:50 PM 54.1°F12.3°C 51.2°F10.7°C 90% Calm Calm 4.6 mph7.4 kmh 29.93 in1013.5 mb - 0.01 in0.3 mm 0.01 in0.3 mm
08:00 PM 53.8°F12.1°C 51.2°F10.7°C 91% 3.5 mph SW5.6 kmh SW 3.5 mph5.6 kmh 29.94 in1013.9 mb - 0.01 in0.3 mm 0.01 in0.3 mm
08:10 PM 53.6°F12.0°C 51.0°F10.6°C 91% 1.2 mph SW1.9 kmh SW 2.3 mph3.7 kmh 29.94 in1013.9 mb - 0.01 in0.3 mm 0.01 in0.3 mm
08:20 PM 53.3°F11.8°C 50.7°F10.4°C 91% 3.5 mph SW5.6 kmh SW 4.6 mph7.4 kmh 29.95 in1014.2 mb - 0.02 in0.5 mm 0.02 in0.5 mm
08:30 PM 53.0°F11.7°C 50.7°F10.4°C 92% 4.6 mph SW7.4 kmh SW 5.8 mph9.3 kmh 29.95 in1014.2 mb - 0.05 in1.3 mm 0.05 in1.3 mm
08:40 PM 52.9°F11.6°C 50.6°F10.3°C 92% Calm Calm 3.5 mph5.6 kmh 29.95 in1014.2 mb - 0.05 in1.3 mm 0.05 in1.3 mm
08:50 PM 52.7°F11.5°C 50.4°F10.2°C 92% Calm Calm 1.2 mph1.9 kmh 29.95 in1014.2 mb - 0.07 in1.8 mm 0.08 in2.0 mm
09:00 PM 52.4°F11.3°C 50.1°F10.1°C 92% 2.3 mph SW3.7 kmh SW 3.5 mph5.6 kmh 29.96 in1014.6 mb - 0.09 in2.3 mm 0.10 in2.5 mm
09:10 PM 52.3°F11.3°C 50.3°F10.2°C 93% 2.3 mph SW3.7 kmh SW 3.5 mph5.6 kmh 29.96 in1014.6 mb - 0.13 in3.3 mm 0.14 in3.6 mm
09:20 PM 52.1°F11.2°C 50.1°F10.1°C 93% 1.2 mph W1.9 kmh W 3.5 mph5.6 kmh 29.96 in1014.6 mb - 0.17 in4.3 mm 0.19 in4.8 mm
09:30 PM 51.9°F11.1°C 49.9°F9.9°C 93% 2.3 mph SW3.7 kmh SW 3.5 mph5.6 kmh 29.97 in1014.9 mb - 0.18 in4.6 mm 0.22 in5.6 mm
09:40 PM 51.8°F11.0°C 49.8°F9.9°C 93% 2.3 mph SW3.7 kmh SW 3.5 mph5.6 kmh 29.97 in1014.9 mb - 0.19 in4.8 mm 0.24 in6.1 mm
09:50 PM 51.7°F10.9°C 50.0°F10.0°C 94% 2.3 mph SW3.7 kmh SW 3.5 mph5.6 kmh 29.97 in1014.9 mb - 0.18 in4.6 mm 0.26 in6.6 mm
10:00 PM 51.8°F11.0°C 50.1°F10.1°C 94% 2.3 mph SW3.7 kmh SW 3.5 mph5.6 kmh 29.98 in1015.2 mb - 0.17 in4.3 mm 0.27 in6.9 mm
10:10 PM 51.9°F11.1°C 50.2°F10.1°C 94% 1.2 mph SW1.9 kmh SW 2.3 mph3.7 kmh 29.98 in1015.2 mb - 0.14 in3.6 mm 0.28 in7.1 mm
10:20 PM 52.0°F11.1°C 50.3°F10.2°C 94% 1.2 mph SW1.9 kmh SW 2.3 mph3.7 kmh 29.98 in1015.2 mb - 0.11 in2.8 mm 0.29 in7.4 mm
10:30 PM 51.8°F11.0°C 50.1°F10.1°C 94% Calm Calm -- 29.98 in1015.2 mb - 0.10 in2.5 mm 0.32 in8.1 mm
10:40 PM 51.8°F11.0°C 50.1°F10.1°C 94% 1.2 mph SW1.9 kmh SW 2.3 mph3.7 kmh 29.99 in1015.6 mb - 0.09 in2.3 mm 0.33 in8.4 mm
10:50 PM 51.7°F10.9°C 50.0°F10.0°C 94% 1.2 mph W1.9 kmh W 2.3 mph3.7 kmh 29.99 in1015.6 mb - 0.12 in3.0 mm 0.38 in9.7 mm
11:00 PM 51.6°F10.9°C 49.9°F9.9°C 94% Calm Calm 1.2 mph1.9 kmh 29.99 in1015.6 mb - 0.14 in3.6 mm 0.41 in10.4 mm
11:10 PM 51.5°F10.8°C 49.8°F9.9°C 94% 1.2 mph NNW1.9 kmh NNW 2.3 mph3.7 kmh 29.99 in1015.6 mb - 0.16 in4.1 mm 0.44 in11.2 mm
11:20 PM 51.5°F10.8°C 49.8°F9.9°C 94% Calm Calm 1.2 mph1.9 kmh 29.99 in1015.6 mb - 0.17 in4.3 mm 0.46 in11.7 mm
11:30 PM 51.5°F10.8°C 50.1°F10.1°C 95% 1.2 mph SW1.9 kmh SW 3.5 mph5.6 kmh 29.99 in1015.6 mb - 0.17 in4.3 mm 0.48 in12.2 mm
11:40 PM 51.4°F10.8°C 50.0°F10.0°C 95% Calm Calm 1.2 mph1.9 kmh 29.99 in1015.6 mb - 0.17 in4.3 mm 0.50 in12.7 mm
11:50 PM 51.2°F10.7°C 49.9°F9.9°C 95% 1.2 mph W1.9 kmh W 2.3 mph3.7 kmh 29.99 in1015.6 mb - 0.15 in3.8 mm 0.52 in13.2 mm